Vremea acum in Constanța - Romania

Vrei sa afli care e starea vremii acum in Constanta - Romania? Dorim sa iti furnizam starea vremii pentru Constanta - Romania. Starea vremii Constanta - Romania pentru astazi.

Vremea acum in Constanța

Temperatura: 6.4 °C

Este: Senin
Se simte ca: 4.8 °C
Innorat: 0 %
Precipitatii: 0 %
Presiune atmosferica: 1015 hPa
Umiditate: 81%
Vizibilitate: 10 km
Vantul bate din S cu 7.9 km/h

Evolutia vremii in Constanța pe ore

Ora: 06:00
Senin
Temperatura: 6.4°C
Sansa de precipitatii: 0%
Ora Descriere Temp Se simte Precipitatii Umiditate Vant
00:00Senin10.6°8.9°0%81%SSW 12.6 KM/H
01:00Senin10.2°8.6°0%80%SSW 12.2 KM/H
02:00Senin10°8.3°0%79%SW 11.5 KM/H
03:00Senin9.8°8.4°0%76%SW 9.7 KM/H
04:00Senin9.8°8.8°0%74%SW 7.9 KM/H
05:00Senin9.8°8.9°0%73%SSW 7.6 KM/H
06:00Senin6.4°8.8°0%81%S 7.9 KM/H
07:00Senin10.7°9.8°0%72%S 8.3 KM/H
08:00Senin12.2°11.4°0%69%SSE 9.4 KM/H
09:00Senin13.2°12.3°0%67%SSE 11.9 KM/H
10:00Senin14°12.9°0%66%SSE 14.4 KM/H
11:00Senin14.5°13.4°0%65%SSE 16.2 KM/H
12:00Senin14.8°13.7°0%65%SSE 16.9 KM/H
13:00Senin15°15°0%65%SSE 17.3 KM/H
14:00Senin15.1°15.1°0%65%SE 18.4 KM/H
15:00Senin15°15.1°0%66%SSE 18.7 KM/H
16:00Senin14.9°13.7°0%67%SSE 18.7 KM/H
17:00Senin14.6°13.3°0%68%SSE 18.4 KM/H
18:00Senin14.2°12.9°0%70%SSE 17.6 KM/H
19:00Senin13.5°12.1°0%74%SSE 16.2 KM/H
20:00Senin12.2°10.7°0%79%SSE 14.4 KM/H
21:00Senin11.6°10°0%80%SSE 13.7 KM/H
22:00Senin11.3°9.7°0%80%SSE 13.7 KM/H
23:00Senin11.2°9.6°0%81%SSE 13.7 KM/H




tutorials